Ana Sayfa
METAR-TAF:

METAR-TAF

Havaalanları :

New River Valley Airport

Dublin, Virginia, Amerika Birleşik Devletleri

Enlem: 37-08N, Boylam: 080-41W, yükseklik: 642 m

Güncel hava durumu gözlemi

Rapor saat 21:35 UTC de 21 dakika önce yapıldı.
Rüzgar kuzeydan 6 kt
Sıcaklık 22°C
Nem 65%
Basınç 1016 hPa
Görüş mesafesi: 16.1 km
4000 ft yükseklikte parçalı bulutlu
4800 ft yükseklikte parçalı bulutlu

METAR: KPSK 232135Z AUTO 01006KT 10SM SCT040 SCT048 22/15 A3000 RMK AO2 T02160153

Saat: 17:56 (21:56 UTC)


TAF: eksik

4.000'den fazla havaalanı için hava durumu gözlemleri ve tahminleri (METAR ve TAF raporları).

Kullanılabilir istasyonlar harita üzerinde sarı ve kırmızı noktalarla gösterilir.

İstasyonun adını görmek için fareyi noktanın üzerinde gezdirin.

Sonrasında hava gözlem ve tahminlerini görmek için tıklayın.

Haritayı değiştirmek için: yaklaştırmak için siyah artı işaretli yeşil düğmeye ve uzaklaştırmak için de eksi işaretli düğmeye hızla tıklayın; bitişik haritalar için yeşil okları kullanın.


METAR-TAF: